Superfast Baleares — EBXD — position and weather

sailwx.info

Track history (hours):
 
Tides and Currents Weather Stations Pressure Air Temp Water Temp Dewpoint Dewpoint Depression Visibility Wind Speed Wind Dir Waves Ship Positions

Superfast Baleares

Last reported at 2015-May-22 23:05 UTC. Time now 2015-May-23 02:44 UTC.
Position N 39°26' W 000°14'.

Length 210 m; draft 6 m.

Type: Ship (hazmat cat A). MMSI: 225405000.

Date/timePositionNaut miles runAvg speedWind from/ knotsBaromVisibWave heightAir tempDewpointWater temp
2015-May-22 23:05N 39°26' W 000°14'4 2.5
2015-May-22 21:22N 39°27' W 000°19'0 0.0
2015-May-22 20:32N 39°27' W 000°19'0 0.0
2015-May-22 19:30N 39°27' W 000°19'0 0.0
2015-May-22 18:33N 39°27' W 000°19'0 0.3
2015-May-22 17:34N 39°27' W 000°19'5 0.2
2015-May-21 19:07N 39°25' W 000°14'5 8.5
2015-May-21 18:33N 39°27' W 000°19'0 0.1
2015-May-21 17:31N 39°27' W 000°19'0 0.0
2015-May-21 13:14N 39°27' W 000°19'0 0.0
2015-May-21 12:20N 39°27' W 000°19'0 0.0
2015-May-21 11:29N 39°27' W 000°19'0 0.0
2015-May-21 10:29N 39°27' W 000°19'0 0.0
2015-May-21 09:21N 39°27' W 000°19'0 0.0
2015-May-21 06:14N 39°27' W 000°19'0 0.5
2015-May-21 05:33N 39°27' W 000°19'8 0.2
2015-May-19 19:27N 39°26' W 000°09'8 9.2
2015-May-19 18:33N 39°27' W 000°19'0 0.2
2015-May-19 17:33N 39°27' W 000°19'0 0.0
2015-May-19 09:31N 39°27' W 000°19'0 0.0
2015-May-19 06:14N 39°27' W 000°19'4 5.5
2015-May-19 05:34N 39°25' W 000°15'5616.0
2015-May-19 02:04N 39°15' E 000°56'917.9
2015-May-19 01:33N 39°14' E 001°08'114 2.7
2015-May-17 07:31N 39°26' E 003°34'1313.8
2015-May-17 06:33N 39°20' E 003°19'1413.6
2015-May-17 05:33N 39°13' E 003°04'1414.2
2015-May-17 04:33N 39°19' E 002°47'1514.5
2015-May-17 03:33N 39°25' E 002°30'1514.4
2015-May-17 02:31N 39°35' E 002°15'1414.5
2015-May-17 01:33N 39°49' E 002°14'1515.0
2015-May-17 00:33N 40°04' E 002°14'1514.9
2015-May-16 23:33N 40°19' E 002°14'1515.0
2015-May-16 22:33N 40°33' E 002°15'2214.7
2015-May-16 21:05N 40°55' E 002°14'611.4
2015-May-16 20:33N 41°01' E 002°14'1111.2
2015-May-16 19:33N 41°12' E 002°14'10 9.5
2015-May-16 18:31N 41°22' E 002°11'0 0.0
2015-May-16 17:25N 41°22' E 002°11'0 0.0
2015-May-16 16:32N 41°22' E 002°11'110 3.4
2015-May-15 08:33N 39°34' E 002°38'0 0.0
2015-May-15 07:33N 39°34' E 002°38'0 0.0
2015-May-15 06:33N 39°34' E 002°38'0 0.3
2015-May-15 05:33N 39°33' E 002°38'3718.3
2015-May-15 03:33N 39°25' E 001°52'1616.3
2015-May-15 02:33N 39°25' E 001°31'1212.0
2015-May-15 01:33N 39°24' E 001°15'7310.5
2015-May-14 18:33N 39°27' W 000°19'0 0.1
2015-May-14 13:18N 39°27' W 000°19'55 4.5
2015-May-14 01:05N 39°28' E 000°52'1011.5
2015-May-14 00:14N 39°27' E 001°04'812.0
2015-May-13 23:33N 39°26' E 001°15'2812.1
2015-May-13 21:16N 39°26' E 001°51'1012.2
2015-May-13 20:27N 39°26' E 002°04'1112.4
2015-May-13 19:33N 39°26' E 002°18'1211.7
2015-May-13 18:34N 39°27' E 002°33'8 8.0
2015-May-13 17:33N 39°34' E 002°38'0 0.0
2015-May-13 16:33N 39°34' E 002°38'0 0.0
2015-May-13 15:33N 39°34' E 002°38'0 0.0
2015-May-13 14:34N 39°34' E 002°38'0 0.0
2015-May-13 13:33N 39°34' E 002°38'0 0.0
2015-May-13 12:34N 39°34' E 002°38'0 0.0
2015-May-13 11:33N 39°34' E 002°38'0 0.0
2015-May-13 10:34N 39°34' E 002°38'0 0.0
2015-May-13 09:33N 39°34' E 002°38'0 0.0
2015-May-13 08:33N 39°34' E 002°38'0 0.0
2015-May-13 07:33N 39°34' E 002°38'0 0.0
2015-May-13 06:33N 39°34' E 002°38'0 0.4
2015-May-13 05:33N 39°33' E 002°38'1312.6
2015-May-13 04:33N 39°25' E 002°26'1817.6
2015-May-13 03:33N 39°25' E 002°03'1616.5
2015-May-13 02:33N 39°25' E 001°42'1111.3
2015-May-13 01:33N 39°25' E 001°27'1111.1
2015-May-13 00:32N 39°25' E 001°12'1111.2
2015-May-12 23:31N 39°25' E 000°58'  
Track history (hours):
 
Tides and Currents Weather Stations Pressure Air Temp Water Temp Dewpoint Dewpoint Depression Visibility Wind Speed Wind Dir Waves Ship Positions

Superfast Baleares

Last reported at 2015-May-22 23:05 UTC. Time now 2015-May-23 02:44 UTC.
Position N 39°26' W 000°14'.

Length 210 m; draft 6 m.

Type: Ship (hazmat cat A). MMSI: 225405000.

Date/timePositionNaut miles runAvg speedWind from/ knotsBaromVisibWave heightAir tempDewpointWater temp
2015-May-22 23:05N 39°26' W 000°14'4 2.5
2015-May-22 21:22N 39°27' W 000°19'0 0.0
2015-May-22 20:32N 39°27' W 000°19'0 0.0
2015-May-22 19:30N 39°27' W 000°19'0 0.0
2015-May-22 18:33N 39°27' W 000°19'0 0.3
2015-May-22 17:34N 39°27' W 000°19'5 0.2
2015-May-21 19:07N 39°25' W 000°14'5 8.5
2015-May-21 18:33N 39°27' W 000°19'0 0.1
2015-May-21 17:31N 39°27' W 000°19'0 0.0
2015-May-21 13:14N 39°27' W 000°19'0 0.0
2015-May-21 12:20N 39°27' W 000°19'0 0.0
2015-May-21 11:29N 39°27' W 000°19'0 0.0
2015-May-21 10:29N 39°27' W 000°19'0 0.0
2015-May-21 09:21N 39°27' W 000°19'0 0.0
2015-May-21 06:14N 39°27' W 000°19'0 0.5
2015-May-21 05:33N 39°27' W 000°19'8 0.2
2015-May-19 19:27N 39°26' W 000°09'8 9.2
2015-May-19 18:33N 39°27' W 000°19'0 0.2
2015-May-19 17:33N 39°27' W 000°19'0 0.0
2015-May-19 09:31N 39°27' W 000°19'0 0.0
2015-May-19 06:14N 39°27' W 000°19'4 5.5
2015-May-19 05:34N 39°25' W 000°15'5616.0
2015-May-19 02:04N 39°15' E 000°56'917.9
2015-May-19 01:33N 39°14' E 001°08'114 2.7
2015-May-17 07:31N 39°26' E 003°34'1313.8
2015-May-17 06:33N 39°20' E 003°19'1413.6
2015-May-17 05:33N 39°13' E 003°04'1414.2
2015-May-17 04:33N 39°19' E 002°47'1514.5
2015-May-17 03:33N 39°25' E 002°30'1514.4
2015-May-17 02:31N 39°35' E 002°15'1414.5
2015-May-17 01:33N 39°49' E 002°14'1515.0
2015-May-17 00:33N 40°04' E 002°14'1514.9
2015-May-16 23:33N 40°19' E 002°14'1515.0
2015-May-16 22:33N 40°33' E 002°15'2214.7
2015-May-16 21:05N 40°55' E 002°14'611.4
2015-May-16 20:33N 41°01' E 002°14'1111.2
2015-May-16 19:33N 41°12' E 002°14'10 9.5
2015-May-16 18:31N 41°22' E 002°11'0 0.0
2015-May-16 17:25N 41°22' E 002°11'0 0.0
2015-May-16 16:32N 41°22' E 002°11'110 3.4
2015-May-15 08:33N 39°34' E 002°38'0 0.0
2015-May-15 07:33N 39°34' E 002°38'0 0.0
2015-May-15 06:33N 39°34' E 002°38'0 0.3
2015-May-15 05:33N 39°33' E 002°38'3718.3
2015-May-15 03:33N 39°25' E 001°52'1616.3
2015-May-15 02:33N 39°25' E 001°31'1212.0
2015-May-15 01:33N 39°24' E 001°15'7310.5
2015-May-14 18:33N 39°27' W 000°19'0 0.1
2015-May-14 13:18N 39°27' W 000°19'55 4.5
2015-May-14 01:05N 39°28' E 000°52'1011.5
2015-May-14 00:14N 39°27' E 001°04'812.0
2015-May-13 23:33N 39°26' E 001°15'2812.1
2015-May-13 21:16N 39°26' E 001°51'1012.2
2015-May-13 20:27N 39°26' E 002°04'1112.4
2015-May-13 19:33N 39°26' E 002°18'1211.7
2015-May-13 18:34N 39°27' E 002°33'8 8.0
2015-May-13 17:33N 39°34' E 002°38'0 0.0
2015-May-13 16:33N 39°34' E 002°38'0 0.0
2015-May-13 15:33N 39°34' E 002°38'0 0.0
2015-May-13 14:34N 39°34' E 002°38'0 0.0
2015-May-13 13:33N 39°34' E 002°38'0 0.0
2015-May-13 12:34N 39°34' E 002°38'0 0.0
2015-May-13 11:33N 39°34' E 002°38'0 0.0
2015-May-13 10:34N 39°34' E 002°38'0 0.0
2015-May-13 09:33N 39°34' E 002°38'0 0.0
2015-May-13 08:33N 39°34' E 002°38'0 0.0
2015-May-13 07:33N 39°34' E 002°38'0 0.0
2015-May-13 06:33N 39°34' E 002°38'0 0.4
2015-May-13 05:33N 39°33' E 002°38'1312.6
2015-May-13 04:33N 39°25' E 002°26'1817.6
2015-May-13 03:33N 39°25' E 002°03'1616.5
2015-May-13 02:33N 39°25' E 001°42'1111.3
2015-May-13 01:33N 39°25' E 001°27'1111.1
2015-May-13 00:32N 39°25' E 001°12'1111.2
2015-May-12 23:31N 39°25' E 000°58'  

Dump ship's entire track history